createdAt,value
2022-09-06T00:01:39.175Z,1.92
2022-09-06T00:04:06.129Z,2.13
2022-09-06T00:06:32.992Z,2.00
2022-09-06T00:08:59.993Z,2.45
2022-09-06T00:11:26.978Z,2.13
2022-09-06T00:13:53.804Z,2.20
2022-09-06T00:16:30.139Z,2.20
2022-09-06T00:18:57.584Z,2.70
2022-09-06T00:21:26.806Z,2.65
2022-09-06T00:23:54.234Z,2.90
2022-09-06T00:26:22.628Z,2.70
2022-09-06T00:28:49.928Z,2.70
2022-09-06T00:31:20.268Z,3.00
2022-09-06T00:33:47.447Z,2.95
2022-09-06T00:36:14.871Z,3.10
2022-09-06T00:38:42.403Z,2.60
2022-09-06T00:41:11.037Z,3.33
2022-09-06T00:43:38.179Z,2.85
2022-09-06T00:46:07.775Z,3.17
2022-09-06T00:48:37.160Z,3.10
2022-09-06T00:51:08.039Z,3.10
2022-09-06T00:53:34.932Z,2.88
2022-09-06T00:56:02.298Z,3.00
2022-09-06T00:58:29.315Z,3.00
2022-09-06T01:00:56.700Z,2.75
2022-09-06T01:03:25.274Z,3.30
2022-09-06T01:06:17.887Z,3.03
2022-09-06T01:09:27.213Z,3.30
2022-09-06T01:12:24.397Z,3.30
2022-09-06T01:15:17.172Z,3.60
2022-09-06T01:18:02.984Z,2.95
2022-09-06T01:20:33.078Z,3.38
2022-09-06T01:23:42.369Z,3.25
2022-09-06T01:26:47.616Z,3.20
2022-09-06T01:29:34.305Z,3.78
2022-09-06T01:32:24.103Z,3.80
2022-09-06T01:35:13.927Z,3.72
2022-09-06T01:37:41.186Z,3.47
2022-09-06T01:40:08.571Z,3.70
2022-09-06T01:42:36.565Z,3.80
2022-09-06T01:45:13.894Z,3.33
2022-09-06T01:47:40.845Z,3.88
2022-09-06T01:50:21.866Z,4.05
2022-09-06T01:53:09.213Z,4.50
2022-09-06T01:55:42.230Z,4.35
2022-09-06T01:58:33.864Z,3.80
2022-09-06T02:01:07.397Z,3.50
2022-09-06T02:03:40.974Z,3.85
2022-09-06T02:06:13.147Z,4.35
2022-09-06T02:08:44.786Z,5.05
2022-09-06T02:11:15.663Z,4.57
2022-09-06T02:13:50.452Z,4.97
2022-09-06T02:16:21.555Z,4.43
2022-09-06T02:18:59.039Z,5.28
2022-09-06T02:21:36.134Z,5.05
2022-09-06T02:24:07.954Z,5.43
2022-09-06T02:26:42.440Z,5.47
2022-09-06T02:29:09.659Z,5.05
2022-09-06T02:31:43.104Z,5.50
2022-09-06T02:34:13.913Z,5.95
2022-09-06T02:36:40.937Z,6.50
2022-09-06T02:39:07.721Z,6.50
2022-09-06T02:41:34.973Z,6.55
2022-09-06T02:44:02.168Z,6.22
2022-09-06T02:46:29.060Z,6.30
2022-09-06T02:48:56.014Z,6.18
2022-09-06T02:51:22.977Z,6.35
2022-09-06T02:53:49.890Z,6.53
2022-09-06T02:56:16.726Z,6.68
2022-09-06T02:58:43.756Z,6.90
2022-09-06T03:01:10.789Z,6.32
2022-09-06T03:03:37.788Z,6.45
2022-09-06T03:06:04.926Z,6.70
2022-09-06T03:08:34.149Z,7.05
2022-09-06T03:11:01.238Z,6.97
2022-09-06T03:13:28.312Z,6.82
2022-09-06T03:15:58.226Z,6.68
2022-09-06T03:18:26.876Z,6.95
2022-09-06T03:20:55.373Z,7.68
2022-09-06T03:23:24.667Z,6.85
2022-09-06T03:25:51.751Z,7.85
2022-09-06T03:28:19.523Z,7.78
2022-09-06T03:30:48.251Z,7.10
2022-09-06T03:33:15.717Z,7.43
2022-09-06T03:35:52.217Z,7.28
2022-09-06T03:38:19.871Z,8.20
2022-09-06T03:40:50.422Z,7.50
2022-09-06T03:43:18.407Z,8.30
2022-09-06T03:45:57.446Z,8.07
2022-09-06T03:48:27.856Z,8.77
2022-09-06T03:50:56.675Z,8.43
2022-09-06T03:53:25.213Z,8.38
2022-09-06T03:55:53.951Z,8.30
2022-09-06T03:58:23.185Z,8.48
2022-09-06T04:00:59.297Z,9.13
2022-09-06T04:03:26.318Z,8.80
2022-09-06T04:05:53.122Z,8.90
2022-09-06T04:08:20.052Z,9.13
2022-09-06T04:10:50.984Z,8.50
2022-09-06T04:13:18.028Z,9.00
2022-09-06T04:15:48.015Z,9.50
2022-09-06T04:18:15.846Z,9.25
2022-09-06T04:20:43.127Z,9.20
2022-09-06T04:23:10.161Z,9.35
2022-09-06T04:25:37.274Z,9.93
2022-09-06T04:28:04.049Z,9.23
2022-09-06T04:30:31.220Z,10.00
2022-09-06T04:32:58.795Z,9.45
2022-09-06T04:35:25.655Z,9.25
2022-09-06T04:37:52.399Z,9.40
2022-09-06T04:40:19.306Z,10.32
2022-09-06T04:42:46.160Z,9.05
2022-09-06T04:45:12.928Z,9.35
2022-09-06T04:47:39.877Z,10.27
2022-09-06T04:50:07.190Z,10.27
2022-09-06T04:52:33.970Z,10.32
2022-09-06T04:55:00.825Z,10.43
2022-09-06T04:57:27.627Z,9.85
2022-09-06T04:59:54.366Z,10.82
2022-09-06T05:02:21.416Z,10.88
2022-09-06T05:04:48.360Z,10.68
2022-09-06T05:07:15.105Z,11.13
2022-09-06T05:09:41.972Z,11.30
2022-09-06T05:12:08.741Z,11.00
2022-09-06T05:14:35.870Z,10.50
2022-09-06T05:17:02.818Z,10.77
2022-09-06T05:19:29.781Z,10.80
2022-09-06T05:21:56.749Z,11.20
2022-09-06T05:24:23.841Z,11.53
2022-09-06T05:26:50.746Z,10.07
2022-09-06T05:29:17.586Z,11.07
2022-09-06T05:31:44.390Z,11.63
2022-09-06T05:34:13.494Z,9.95
2022-09-06T05:36:41.668Z,10.90
2022-09-06T05:39:08.587Z,10.85
2022-09-06T05:41:35.468Z,10.60
2022-09-06T05:44:03.733Z,11.27
2022-09-06T05:46:30.607Z,12.07
2022-09-06T05:49:01.129Z,10.85
2022-09-06T05:51:27.989Z,10.77
2022-09-06T05:53:55.019Z,11.75
2022-09-06T05:56:22.565Z,11.55
2022-09-06T05:58:49.370Z,11.48
2022-09-06T06:01:22.163Z,11.45
2022-09-06T06:03:54.292Z,11.57
2022-09-06T06:06:22.127Z,11.32
2022-09-06T06:08:49.310Z,11.50
2022-09-06T06:11:17.042Z,11.90
2022-09-06T06:13:44.499Z,11.70
2022-09-06T06:16:13.704Z,11.60
2022-09-06T06:18:40.836Z,11.10
2022-09-06T06:21:16.205Z,12.18
2022-09-06T06:23:45.778Z,10.98
2022-09-06T06:26:13.772Z,10.95
2022-09-06T06:28:41.348Z,10.88
2022-09-06T06:31:10.116Z,11.05
2022-09-06T06:33:37.027Z,10.45
2022-09-06T06:36:06.987Z,9.50
2022-09-06T06:38:38.969Z,10.85
2022-09-06T06:41:07.377Z,10.32
2022-09-06T06:43:38.110Z,10.88
2022-09-06T06:46:09.432Z,10.15
2022-09-06T06:48:37.680Z,11.40
2022-09-06T06:51:04.755Z,9.73
2022-09-06T06:53:32.805Z,8.63
2022-09-06T06:55:59.725Z,9.68
2022-09-06T06:58:26.913Z,10.23
2022-09-06T07:00:54.010Z,10.63
2022-09-06T07:03:21.624Z,10.65
2022-09-06T07:08:37.133Z,10.68
2022-09-06T07:11:05.920Z,10.23
2022-09-06T07:13:34.168Z,11.25
2022-09-06T07:16:28.293Z,9.88
2022-09-06T07:18:55.457Z,10.02
2022-09-06T07:21:42.349Z,10.30
2022-09-06T07:24:09.823Z,10.20
2022-09-06T07:26:39.398Z,10.43
2022-09-06T07:29:07.928Z,10.18
2022-09-06T07:34:25.776Z,9.68
2022-09-06T07:36:53.983Z,9.80
2022-09-06T07:39:21.024Z,9.27
2022-09-06T07:41:47.820Z,9.43
2022-09-06T07:44:15.427Z,10.00
2022-09-06T07:46:42.912Z,9.05
2022-09-06T07:49:09.758Z,9.02
2022-09-06T07:51:36.604Z,9.68
2022-09-06T07:56:50.395Z,9.15
2022-09-06T07:59:17.231Z,9.00
2022-09-06T08:01:44.049Z,8.90
2022-09-06T08:04:13.914Z,8.93
2022-09-06T08:09:30.797Z,8.07
2022-09-06T08:11:57.539Z,8.43
2022-09-06T08:14:24.542Z,8.52
2022-09-06T08:16:51.536Z,7.80
2022-09-06T08:19:18.544Z,8.23
2022-09-06T08:21:45.389Z,7.60
2022-09-06T08:24:12.250Z,6.78
2022-09-06T08:26:45.447Z,6.93
2022-09-06T08:29:13.265Z,6.80
2022-09-06T08:31:42.967Z,6.97
2022-09-06T08:34:12.835Z,6.70
2022-09-06T08:36:40.795Z,6.15
2022-09-06T08:39:10.112Z,6.53
2022-09-06T08:41:55.292Z,6.65
2022-09-06T08:44:55.892Z,5.32
2022-09-06T08:47:24.108Z,6.03
2022-09-06T08:50:02.476Z,6.15
2022-09-06T08:52:54.489Z,5.97
2022-09-06T08:55:41.396Z,5.45
2022-09-06T08:58:33.977Z,6.10
2022-09-06T09:01:11.441Z,5.18
2022-09-06T09:03:40.273Z,6.68
2022-09-06T09:06:10.108Z,5.80
2022-09-06T09:09:01.684Z,5.43
2022-09-06T09:11:33.381Z,4.93
2022-09-06T09:14:19.437Z,4.28
2022-09-06T09:16:51.362Z,4.93
2022-09-06T09:19:18.239Z,4.53
2022-09-06T09:21:45.164Z,4.68
2022-09-06T09:24:13.833Z,4.80
2022-09-06T09:26:57.021Z,4.47
2022-09-06T09:29:27.936Z,3.85
2022-09-06T09:31:56.699Z,4.40
2022-09-06T09:34:37.087Z,4.32
2022-09-06T09:37:46.063Z,4.57
2022-09-06T09:40:25.919Z,5.00
2022-09-06T09:42:54.935Z,4.57
2022-09-06T09:45:29.079Z,4.78
2022-09-06T09:47:56.182Z,4.45
2022-09-06T09:50:29.566Z,4.95
2022-09-06T09:52:56.418Z,4.88
2022-09-06T09:55:26.378Z,4.70
2022-09-06T09:57:54.287Z,4.97
2022-09-06T10:00:36.310Z,4.95
2022-09-06T10:03:12.381Z,5.60
2022-09-06T10:05:39.980Z,4.80
2022-09-06T10:08:11.011Z,4.80
2022-09-06T10:10:46.768Z,4.35
2022-09-06T10:13:22.802Z,4.68
2022-09-06T10:15:52.185Z,4.90
2022-09-06T10:18:41.311Z,4.32
2022-09-06T10:21:16.406Z,4.75
2022-09-06T10:26:53.085Z,4.35
2022-09-06T10:29:45.452Z,5.80
2022-09-06T10:32:40.418Z,5.40
2022-09-06T10:35:07.765Z,6.22
2022-09-06T10:37:51.208Z,5.82
2022-09-06T10:40:30.889Z,5.97
2022-09-06T10:43:01.412Z,5.63
2022-09-06T10:45:35.644Z,6.00
2022-09-06T10:48:26.275Z,6.13
2022-09-06T10:51:00.991Z,5.50
2022-09-06T10:54:00.369Z,5.35
2022-09-06T10:56:45.370Z,5.80
2022-09-06T10:59:42.446Z,6.28
2022-09-06T11:02:38.319Z,5.70
2022-09-06T11:10:55.410Z,5.72
2022-09-06T11:13:28.249Z,5.78
2022-09-06T11:16:02.720Z,6.60
2022-09-06T11:18:57.122Z,6.72
2022-09-06T11:21:42.769Z,7.25
2022-09-06T11:24:13.983Z,7.45
2022-09-06T11:26:43.725Z,6.00
2022-09-06T11:29:22.317Z,7.53
2022-09-06T11:34:53.667Z,7.97
2022-09-06T11:37:32.608Z,7.47
2022-09-06T11:42:52.143Z,7.78
2022-09-06T11:45:22.004Z,6.43
2022-09-06T11:47:53.192Z,7.60
2022-09-06T11:50:29.284Z,7.22
2022-09-06T11:53:16.973Z,8.33
2022-09-06T11:55:50.144Z,8.60
2022-09-06T11:58:17.260Z,8.10
2022-09-06T12:01:07.849Z,7.32
2022-09-06T12:04:06.946Z,6.78
2022-09-06T12:07:02.597Z,4.60
2022-09-06T12:09:42.666Z,6.38
2022-09-06T12:12:14.891Z,5.18
2022-09-06T12:14:46.763Z,5.22
2022-09-06T12:17:13.658Z,4.88
2022-09-06T12:19:48.502Z,5.43
2022-09-06T12:22:31.103Z,5.43
2022-09-06T12:25:03.832Z,5.10
2022-09-06T12:27:54.876Z,5.63
2022-09-06T12:30:38.735Z,5.65
2022-09-06T12:33:08.584Z,6.07
2022-09-06T12:38:25.578Z,4.95
2022-09-06T12:40:58.360Z,6.43
2022-09-06T12:43:26.362Z,5.88
2022-09-06T12:45:53.224Z,4.77
2022-09-06T12:48:35.154Z,5.03
2022-09-06T12:51:08.233Z,4.25
2022-09-06T12:53:35.722Z,4.60
2022-09-06T12:56:12.586Z,5.65
2022-09-06T12:58:40.107Z,4.83
2022-09-06T13:01:35.091Z,4.90
2022-09-06T13:04:08.024Z,5.10
2022-09-06T13:06:42.622Z,5.30
2022-09-06T13:09:14.080Z,5.38
2022-09-06T13:11:47.351Z,5.47
2022-09-06T13:14:25.199Z,3.75
2022-09-06T13:16:53.701Z,4.75
2022-09-06T13:19:38.500Z,5.03
2022-09-06T13:22:08.031Z,4.90
2022-09-06T13:24:35.309Z,4.73
2022-09-06T13:27:23.185Z,4.40
2022-09-06T13:30:34.698Z,4.93
2022-09-06T13:33:03.034Z,4.13
2022-09-06T13:35:32.899Z,4.90
2022-09-06T13:38:38.082Z,4.50
2022-09-06T13:41:13.591Z,3.70
2022-09-06T13:43:47.713Z,5.25
2022-09-06T13:46:17.886Z,8.10
2022-09-06T13:48:45.116Z,5.20
2022-09-06T13:51:12.131Z,3.53
2022-09-06T13:53:39.065Z,3.92
2022-09-06T13:56:08.426Z,3.63
2022-09-06T13:58:36.311Z,3.00
2022-09-06T14:01:05.057Z,3.38
2022-09-06T14:03:32.975Z,3.40
2022-09-06T14:06:00.673Z,2.90
2022-09-06T14:08:43.814Z,3.17
2022-09-06T14:11:16.214Z,3.92
2022-09-06T14:13:43.133Z,3.65
2022-09-06T14:16:10.332Z,2.83
2022-09-06T14:18:37.557Z,2.95
2022-09-06T14:21:05.566Z,3.33
2022-09-06T14:23:32.512Z,3.58
2022-09-06T14:26:01.310Z,4.57
2022-09-06T14:28:31.215Z,3.80
2022-09-06T14:30:58.367Z,3.50
2022-09-06T14:33:25.391Z,3.42
2022-09-06T14:35:52.381Z,3.30
2022-09-06T14:38:19.661Z,3.33
2022-09-06T14:40:47.310Z,2.77
2022-09-06T14:43:15.832Z,3.03
2022-09-06T14:45:42.695Z,3.00
2022-09-06T14:48:09.749Z,2.88
2022-09-06T14:50:37.378Z,2.22
2022-09-06T14:53:08.881Z,2.50
2022-09-06T14:55:45.843Z,2.22
2022-09-06T14:58:14.919Z,2.13
2022-09-06T15:00:45.678Z,2.15
2022-09-06T15:03:12.604Z,2.10
2022-09-06T15:05:39.500Z,1.80
2022-09-06T15:08:06.536Z,1.77
2022-09-06T15:10:33.854Z,1.80
2022-09-06T15:13:00.613Z,1.60
2022-09-06T15:15:27.471Z,1.60
2022-09-06T15:17:55.689Z,2.10
2022-09-06T15:20:22.559Z,1.55
2022-09-06T15:22:56.416Z,2.00
2022-09-06T15:25:37.148Z,1.90
2022-09-06T15:28:05.001Z,1.63
2022-09-06T15:30:35.522Z,1.80
2022-09-06T15:33:02.484Z,1.80
2022-09-06T15:35:29.258Z,1.60
2022-09-06T15:37:56.285Z,1.80
2022-09-06T15:40:24.479Z,1.80
2022-09-06T15:42:52.064Z,1.50
2022-09-06T15:45:19.167Z,1.70
2022-09-06T15:47:46.029Z,1.90
2022-09-06T15:50:12.933Z,1.73
2022-09-06T15:52:40.541Z,1.80
2022-09-06T15:55:26.385Z,1.90
2022-09-06T15:57:56.328Z,1.67
2022-09-06T16:00:23.859Z,2.10
2022-09-06T16:02:57.122Z,2.38
2022-09-06T16:08:11.721Z,2.00
2022-09-06T16:10:39.280Z,1.85
2022-09-06T16:13:06.111Z,2.08
2022-09-06T16:15:33.263Z,1.85
2022-09-06T16:18:05.203Z,1.80
2022-09-06T16:20:33.530Z,1.90
2022-09-06T16:23:00.482Z,1.73
2022-09-06T16:25:28.261Z,1.60
2022-09-06T16:27:55.432Z,1.88
2022-09-06T16:30:22.952Z,1.70
2022-09-06T16:32:50.351Z,1.70
2022-09-06T16:35:17.354Z,1.60
2022-09-06T16:37:44.593Z,1.60
2022-09-06T16:40:11.908Z,1.88
2022-09-06T16:42:38.873Z,1.83
2022-09-06T16:45:05.933Z,2.80
2022-09-06T16:47:32.674Z,2.30
2022-09-06T16:49:59.862Z,1.90
2022-09-06T16:52:26.803Z,1.65
2022-09-06T16:54:54.333Z,1.77
2022-09-06T16:57:24.936Z,2.27
2022-09-06T16:59:51.942Z,2.22
2022-09-06T17:02:22.332Z,1.90
2022-09-06T17:04:51.365Z,1.90
2022-09-06T17:07:18.301Z,1.88
2022-09-06T17:09:47.227Z,1.70
2022-09-06T17:12:15.031Z,2.10
2022-09-06T17:14:42.453Z,1.83
2022-09-06T17:17:10.286Z,2.30
2022-09-06T17:19:40.877Z,1.70
2022-09-06T17:22:12.912Z,1.97
2022-09-06T17:24:41.726Z,2.03
2022-09-06T17:27:09.925Z,1.77
2022-09-06T17:29:37.169Z,2.03
2022-09-06T17:32:05.470Z,2.17
2022-09-06T17:34:32.509Z,2.00
2022-09-06T17:36:59.884Z,2.10
2022-09-06T17:39:27.308Z,2.15
2022-09-06T17:41:59.748Z,2.10
2022-09-06T17:44:27.777Z,2.30
2022-09-06T17:47:12.034Z,2.23
2022-09-06T17:49:41.222Z,2.35
2022-09-06T17:52:08.343Z,2.53
2022-09-06T17:54:35.607Z,2.53
2022-09-06T17:57:02.853Z,2.65
2022-09-06T17:59:35.433Z,2.20
2022-09-06T18:02:03.667Z,2.03
2022-09-06T18:04:33.772Z,2.50
2022-09-06T18:07:01.322Z,2.40
2022-09-06T18:09:29.502Z,2.47
2022-09-06T18:11:58.621Z,2.20
2022-09-06T18:14:28.819Z,2.60
2022-09-06T18:16:56.105Z,1.98
2022-09-06T18:19:23.670Z,2.10
2022-09-06T18:21:51.826Z,1.95
2022-09-06T18:24:18.947Z,2.00
2022-09-06T18:26:46.393Z,1.95
2022-09-06T18:29:16.488Z,1.70
2022-09-06T18:31:44.050Z,1.75
2022-09-06T18:34:11.568Z,1.85
2022-09-06T18:36:38.947Z,1.70
2022-09-06T18:39:06.598Z,1.50
2022-09-06T18:41:53.416Z,1.65
2022-09-06T18:44:21.646Z,2.00
2022-09-06T18:46:48.940Z,1.60
2022-09-06T18:49:16.846Z,1.80
2022-09-06T18:51:45.783Z,2.20
2022-09-06T18:54:13.216Z,1.90
2022-09-06T18:56:40.530Z,1.90
2022-09-06T18:59:07.712Z,1.85
2022-09-06T19:01:37.761Z,1.92
2022-09-06T19:04:05.929Z,2.13
2022-09-06T19:06:34.358Z,2.15
2022-09-06T19:09:04.427Z,1.90
2022-09-06T19:11:31.916Z,2.00
2022-09-06T19:13:59.166Z,1.77
2022-09-06T19:16:27.802Z,2.10
2022-09-06T19:18:56.962Z,1.80
2022-09-06T19:21:25.587Z,2.10
2022-09-06T19:24:02.298Z,2.00
2022-09-06T19:26:32.418Z,1.98
2022-09-06T19:29:02.023Z,2.10
2022-09-06T19:31:32.108Z,2.28
2022-09-06T19:33:59.909Z,2.80
2022-09-06T19:36:28.839Z,2.40
2022-09-06T19:39:03.498Z,2.50
2022-09-06T19:41:33.290Z,2.20
2022-09-06T19:44:01.618Z,2.88
2022-09-06T19:46:28.546Z,2.65
2022-09-06T19:48:56.169Z,2.17
2022-09-06T19:51:24.429Z,3.20
2022-09-06T19:53:53.418Z,2.60
2022-09-06T19:56:26.515Z,2.75
2022-09-06T19:58:57.924Z,2.80
2022-09-06T20:01:29.272Z,2.60
2022-09-06T20:03:56.956Z,2.50
2022-09-06T20:06:41.310Z,3.10
2022-09-06T20:09:10.177Z,2.83
2022-09-06T20:11:37.920Z,2.70
2022-09-06T20:14:05.125Z,2.85
2022-09-06T20:16:32.549Z,2.50
2022-09-06T20:19:00.368Z,2.50
2022-09-06T20:21:28.645Z,2.53
2022-09-06T20:23:57.533Z,2.88
2022-09-06T20:26:26.073Z,2.70
2022-09-06T20:29:01.322Z,2.72
2022-09-06T20:31:29.846Z,2.63
2022-09-06T20:33:59.744Z,2.70
2022-09-06T20:36:26.992Z,3.13
2022-09-06T20:38:54.121Z,3.15
2022-09-06T20:41:23.831Z,3.53
2022-09-06T20:43:56.057Z,4.38
2022-09-06T20:46:25.216Z,4.55
2022-09-06T20:48:52.510Z,4.35
2022-09-06T20:51:21.803Z,4.63
2022-09-06T20:53:55.522Z,5.28
2022-09-06T20:56:24.853Z,5.53
2022-09-06T20:58:57.343Z,5.50
2022-09-06T21:01:26.003Z,5.38
2022-09-06T21:03:56.438Z,5.18
2022-09-06T21:06:25.006Z,5.65
2022-09-06T21:08:52.431Z,5.32
2022-09-06T21:11:19.658Z,5.93
2022-09-06T21:13:53.508Z,5.07
2022-09-06T21:16:24.528Z,5.25
2022-09-06T21:18:53.255Z,5.03
2022-09-06T21:21:20.226Z,5.68
2022-09-06T21:23:46.986Z,5.55
2022-09-06T21:26:15.906Z,5.18
2022-09-06T21:28:43.450Z,5.53
2022-09-06T21:31:12.762Z,5.63
2022-09-06T21:33:42.407Z,5.90
2022-09-06T21:36:11.916Z,6.13
2022-09-06T21:38:40.569Z,6.15
2022-09-06T21:41:08.881Z,5.25
2022-09-06T21:43:35.923Z,5.78
2022-09-06T21:46:12.170Z,5.53
2022-09-06T21:48:40.712Z,5.75
2022-09-06T21:51:08.955Z,5.90
2022-09-06T21:53:37.091Z,6.10
2022-09-06T21:56:05.459Z,6.40
2022-09-06T21:58:33.147Z,5.72
2022-09-06T22:01:01.370Z,6.40
2022-09-06T22:03:30.800Z,5.78
2022-09-06T22:05:57.640Z,4.03
2022-09-06T22:08:25.259Z,4.28
2022-09-06T22:10:52.334Z,5.15
2022-09-06T22:13:20.356Z,3.58
2022-09-06T22:15:47.278Z,3.38
2022-09-06T22:18:14.125Z,3.08
2022-09-06T22:20:40.957Z,2.80
2022-09-06T22:23:09.934Z,3.22
2022-09-06T22:25:36.771Z,3.58
2022-09-06T22:28:03.673Z,2.97
2022-09-06T22:30:31.029Z,2.90
2022-09-06T22:32:58.171Z,2.92
2022-09-06T22:35:25.043Z,2.42
2022-09-06T22:37:51.857Z,2.55
2022-09-06T22:40:19.200Z,2.22
2022-09-06T22:42:46.182Z,2.70
2022-09-06T22:45:13.131Z,2.40
2022-09-06T22:47:40.022Z,2.85
2022-09-06T22:50:08.428Z,3.30
2022-09-06T22:52:35.242Z,4.18
2022-09-06T22:55:02.311Z,5.30
2022-09-06T22:57:29.217Z,5.35
2022-09-06T22:59:56.073Z,5.60
2022-09-06T23:02:22.813Z,5.60
2022-09-06T23:04:54.640Z,5.50
2022-09-06T23:07:21.701Z,6.35
2022-09-06T23:09:48.503Z,5.32
2022-09-06T23:12:15.353Z,5.70
2022-09-06T23:14:42.467Z,5.78
2022-09-06T23:17:10.578Z,5.93
2022-09-06T23:19:37.505Z,5.75
2022-09-06T23:22:04.295Z,5.32
2022-09-06T23:24:31.085Z,5.30
2022-09-06T23:26:58.062Z,5.13
2022-09-06T23:29:24.890Z,4.70
2022-09-06T23:31:51.683Z,4.40
2022-09-06T23:34:18.655Z,4.60
2022-09-06T23:36:45.523Z,4.05
2022-09-06T23:39:12.465Z,3.83
2022-09-06T23:41:39.401Z,3.83
2022-09-06T23:44:06.248Z,4.20
2022-09-06T23:46:33.664Z,4.30
2022-09-06T23:49:00.445Z,3.83
2022-09-06T23:51:27.266Z,3.47
2022-09-06T23:53:54.349Z,3.70
2022-09-06T23:56:22.348Z,3.42
2022-09-06T23:58:49.070Z,3.92
